Time;durP1;ratioP1;P1;durP2;ratioP2;P2;SDS_P1;SDS_P2;PMS_P1;PMS_P2;Temp;Humidity;BMP_temperature;BMP_pressure;BME280_temperature;BME280_humidity;BME280_pressure;Samples;Min_cycle;Max_cycle;Signal;HPM_P1;HPM_P2
2021/12/06 00:01:47;;;;;;;4.45;3.40;;;;;;;16.09;46.03;94647.91;10651329;27;20046;-79
2021/12/06 00:06:54;;;;;;;4.03;3.33;;;;;;;16.09;45.99;94640.13;10669505;27;20031;-78
2021/12/06 00:11:59;;;;;;;4.78;3.22;;;;;;;16.08;46.15;94633.31;10668834;27;20035;-78
2021/12/06 00:17:07;;;;;;;4.07;2.83;;;;;;;16.06;46.01;94641.34;10668226;27;20030;-78
2021/12/06 00:22:12;;;;;;;4.30;3.15;;;;;;;16.06;46.07;94651.75;10668502;27;20118;-78
2021/12/06 00:27:14;;;;;;;3.47;2.80;;;;;;;16.04;46.18;94646.00;10668030;27;20034;-78
2021/12/06 00:32:16;;;;;;;4.18;2.80;;;;;;;16.05;46.00;94651.97;10667974;27;20050;-78
2021/12/06 00:37:29;;;;;;;4.72;3.25;;;;;;;16.04;46.15;94653.03;10668076;27;20042;-78
2021/12/06 00:42:33;;;;;;;6.95;3.20;;;;;;;16.03;46.41;94664.44;10667386;27;20396;-79
2021/12/06 00:47:35;;;;;;;3.72;3.00;;;;;;;16.03;45.97;94667.03;10667471;27;20035;-78
2021/12/06 00:52:37;;;;;;;4.72;3.05;;;;;;;16.01;46.21;94666.47;10667033;27;20135;-78
2021/12/06 00:57:39;;;;;;;3.58;2.97;;;;;;;16.02;46.27;94675.84;10667005;27;20041;-79
2021/12/06 01:02:41;;;;;;;5.43;3.60;;;;;;;16.01;46.14;94684.69;10666874;27;20027;-79
2021/12/06 01:07:43;;;;;;;3.45;2.85;;;;;;;16.01;46.25;94680.28;10666471;27;20045;-78
2021/12/06 01:12:45;;;;;;;4.30;2.95;;;;;;;16.00;46.07;94689.09;10666153;27;20042;-78
2021/12/06 01:17:47;;;;;;;3.42;2.80;;;;;;;16.01;46.29;94702.91;10647428;27;20492;-79
2021/12/06 01:22:55;;;;;;;2.78;2.58;;;;;;;15.99;45.87;94705.75;10665988;27;21015;-79
2021/12/06 01:44:05;;;;;;;4.25;3.00;;;;;;;15.95;45.95;94735.81;10604313;27;20067;-79
2021/12/06 01:49:08;;;;;;;4.00;3.00;;;;;;;15.95;46.25;94738.44;10621786;27;20050;-79
2021/12/06 01:54:11;;;;;;;3.42;3.00;;;;;;;15.95;46.03;94743.63;10646493;27;20042;-79
2021/12/06 01:59:13;;;;;;;3.92;3.33;;;;;;;15.95;46.14;94748.84;10646517;27;20090;-78
2021/12/06 02:04:15;;;;;;;3.33;2.97;;;;;;;15.94;46.32;94752.47;10646361;27;20043;-79
2021/12/06 02:09:19;;;;;;;4.80;3.00;;;;;;;15.94;46.33;94745.44;10646307;27;20133;-78
2021/12/06 02:14:41;;;;;;;3.20;2.90;;;;;;;15.93;46.12;94753.47;10646723;27;20042;-79
2021/12/06 02:19:49;;;;;;;3.85;3.15;;;;;;;15.93;45.99;94758.69;10645961;27;20366;-78
2021/12/06 02:24:55;;;;;;;3.70;3.23;;;;;;;15.92;46.56;94752.69;10663624;27;20073;-78
2021/12/06 02:30:01;;;;;;;4.20;2.90;;;;;;;15.93;46.02;94756.09;10629064;27;20134;-78
2021/12/06 02:35:11;;;;;;;3.28;2.95;;;;;;;15.92;46.12;94764.91;10645665;27;20138;-78
2021/12/06 02:40:18;;;;;;;3.60;2.70;;;;;;;15.91;46.26;94758.91;10651047;27;20141;-78
2021/12/06 02:45:27;;;;;;;3.03;2.67;;;;;;;15.91;46.02;94763.31;10672780;27;20492;-78
2021/12/06 02:50:34;;;;;;;3.53;2.95;;;;;;;15.91;46.22;94764.09;10671920;27;20497;-79
2021/12/06 02:55:37;;;;;;;;;;;;;;;15.91;46.41;94768.53;10653939;27;20062;-78
2021/12/06 03:00:55;;;;;;;2.67;2.45;;;;;;;15.91;46.20;94769.31;10653320;27;20013;-78
2021/12/06 03:05:58;;;;;;;3.67;2.70;;;;;;;15.89;46.55;94779.16;10671248;27;20058;-79
2021/12/06 03:11:00;;;;;;;2.42;2.22;;;;;;;15.89;46.31;94776.56;10653324;27;20041;-78
2021/12/06 03:16:03;;;;;;;3.75;2.75;;;;;;;15.89;46.58;94788.75;10670069;27;20039;-79
2021/12/06 03:21:05;;;;;;;3.47;2.80;;;;;;;15.89;46.26;94792.16;10670849;27;20042;-78
2021/12/06 03:26:07;;;;;;;3.05;2.65;;;;;;;15.89;46.59;94794.78;10652414;27;20046;-78
2021/12/06 03:31:12;;;;;;;5.53;2.53;;;;;;;15.88;46.42;94793.19;10652077;27;20458;-78
2021/12/06 03:36:16;;;;;;;5.15;2.65;;;;;;;15.88;46.44;94795.00;10670482;27;20038;-78
2021/12/06 03:41:23;;;;;;;4.50;2.70;;;;;;;15.89;46.36;94819.97;10651654;27;20500;-78
2021/12/06 03:46:27;;;;;;;3.22;2.42;;;;;;;15.88;46.39;94824.41;10651330;27;20031;-79
2021/12/06 03:51:29;;;;;;;2.90;2.40;;;;;;;15.89;46.32;94825.19;10668989;27;20373;-78
2021/12/06 03:56:31;;;;;;;3.38;2.55;;;;;;;15.88;46.58;94823.63;10651286;27;20080;-78
2021/12/06 04:01:33;;;;;;;3.83;2.70;;;;;;;15.89;46.46;94830.41;10650663;27;20095;-79
2021/12/06 04:06:39;;;;;;;3.45;2.40;;;;;;;15.88;46.52;94834.03;10651007;27;20395;-78
2021/12/06 04:11:41;;;;;;;2.45;2.00;;;;;;;15.88;46.48;94841.84;10633894;27;20091;-78
2021/12/06 04:16:44;;;;;;;2.40;2.20;;;;;;;15.88;46.52;94839.22;10650480;27;20057;-78
2021/12/06 04:21:47;;;;;;;2.42;2.22;;;;;;;15.88;46.35;94852.25;10650015;27;20050;-79
2021/12/06 04:26:49;;;;;;;2.53;2.22;;;;;;;15.88;46.12;94849.63;10649601;27;20118;-78
2021/12/06 04:31:55;;;;;;;2.92;2.40;;;;;;;15.88;46.22;94863.44;10649644;27;20061;-78
2021/12/06 04:36:58;;;;;;;3.10;2.10;;;;;;;15.88;46.60;94860.06;10649387;27;20543;-78
2021/12/06 04:42:01;;;;;;;2.63;2.10;;;;;;;15.88;46.32;94865.25;10632315;27;20042;-78
2021/12/06 04:47:06;;;;;;;4.30;2.08;;;;;;;15.87;46.41;94867.03;10648978;27;20042;-78
2021/12/06 04:52:10;;;;;;;2.63;2.42;;;;;;;15.87;46.27;94874.84;10649026;27;20046;-78
2021/12/06 04:57:15;;;;;;;4.82;2.25;;;;;;;15.87;46.55;94885.25;10648531;27;20042;-78
2021/12/06 05:02:32;;;;;;;2.40;2.20;;;;;;;15.88;46.29;94893.88;10666793;27;20039;-78
2021/12/06 05:07:44;;;;;;;2.50;2.20;;;;;;;15.87;46.48;94903.47;10648318;27;20043;-78
2021/12/06 05:12:48;;;;;;;4.82;2.20;;;;;;;15.87;46.36;94900.09;10648152;27;20158;-79
2021/12/06 05:17:51;;;;;;;2.92;2.30;;;;;;;15.86;46.32;94901.09;10647782;27;20130;-79
2021/12/06 05:22:54;;;;;;;3.83;2.17;;;;;;;15.86;46.48;94909.72;10647551;27;20095;-78
2021/12/06 05:27:58;;;;;;;3.05;2.35;;;;;;;15.86;46.44;94916.72;10647196;27;20122;-78
2021/12/06 05:33:02;;;;;;;2.30;2.10;;;;;;;15.86;46.55;94920.13;10647618;27;20047;-79
2021/12/06 05:38:03;;;;;;;3.25;2.33;;;;;;;15.85;46.54;94931.53;10665591;27;20043;-78
2021/12/06 05:43:05;;;;;;;3.65;2.20;;;;;;;15.85;46.57;94934.13;10665629;27;20476;-78
2021/12/06 05:48:07;;;;;;;2.83;2.28;;;;;;;15.85;46.41;94939.34;10665388;27;20042;-79
2021/12/06 05:53:09;;;;;;;4.50;2.10;;;;;;;15.86;46.36;94955.75;10665184;27;20043;-78
2021/12/06 05:58:12;;;;;;;2.58;2.00;;;;;;;15.84;46.41;94958.56;10665435;27;20046;-79
2021/12/06 06:03:15;;;;;;;4.30;2.45;;;;;;;15.86;46.67;94960.94;10664455;27;20043;-78
2021/12/06 06:08:18;;;;;;;3.40;1.95;;;;;;;15.85;46.55;94969.78;10664376;27;20046;-78
2021/12/06 06:13:20;;;;;;;4.47;2.30;;;;;;;15.84;46.25;94979.38;10639534;27;20361;-78
2021/12/06 06:18:21;;;;;;;2.05;1.85;;;;;;;15.84;46.33;94986.41;10638024;27;20039;-78
2021/12/06 06:23:24;;;;;;;2.45;2.20;;;;;;;15.84;46.32;94996.81;10672900;27;20129;-79
2021/12/06 06:28:25;;;;;;;2.55;1.90;;;;;;;15.84;46.69;95007.22;10672027;27;20480;-78
2021/12/06 06:33:27;;;;;;;2.15;1.92;;;;;;;15.83;46.88;95010.81;10672869;27;20057;-78
2021/12/06 06:38:29;;;;;;;3.33;2.20;;;;;;;15.84;46.53;95018.41;10672259;27;20087;-79
2021/12/06 06:43:31;;;;;;;4.97;2.13;;;;;;;15.84;46.63;95028.03;10671751;27;20034;-79
2021/12/06 06:48:34;;;;;;;12.52;2.63;;;;;;;15.84;47.82;95028.81;10661878;27;20093;-80
2021/12/06 06:53:35;;;;;;;6.50;2.50;;;;;;;15.87;48.80;95038.00;10647768;27;20462;-80
2021/12/06 06:58:37;;;;;;;8.10;3.10;;;;;;;15.89;49.03;95039.41;10653514;27;20039;-80
2021/12/06 07:03:38;;;;;;;16.65;2.80;;;;;;;15.91;49.15;95052.19;10668736;27;20050;-79
2021/12/06 07:08:42;;;;;;;14.93;2.88;;;;;;;15.92;49.32;95065.00;10667416;27;20077;-79
2021/12/06 07:13:46;;;;;;;19.52;2.80;;;;;;;15.94;49.58;95072.59;10649440;27;20043;-80
2021/12/06 07:18:49;;;;;;;12.90;3.88;;;;;;;15.94;49.46;95078.59;10647579;27;20092;-80
2021/12/06 07:23:51;;;;;;;17.65;2.65;;;;;;;15.96;49.22;95088.78;10649793;27;20058;-79
2021/12/06 07:28:55;;;;;;;20.98;3.42;;;;;;;15.96;49.17;95084.38;10668726;27;20066;-78
2021/12/06 07:33:56;;;;;;;29.85;3.30;;;;;;;15.99;49.52;95092.75;10668337;27;20065;-79
2021/12/06 07:38:58;;;;;;;31.08;3.40;;;;;;;15.99;49.89;95100.56;10664458;27;20388;-79
2021/12/06 07:44:01;;;;;;;20.98;3.72;;;;;;;15.99;49.62;95111.78;10660468;27;20051;-79
2021/12/06 07:49:03;;;;;;;16.40;3.78;;;;;;;16.00;49.50;95109.97;10664545;27;20145;-79
2021/12/06 07:54:04;;;;;;;30.15;3.25;;;;;;;16.02;49.28;95118.34;10663594;27;20039;-79
2021/12/06 07:59:06;;;;;;;29.42;3.75;;;;;;;16.02;49.16;95115.75;10649126;27;20047;-79
2021/12/06 08:04:08;;;;;;;13.88;3.40;;;;;;;16.01;49.13;95114.97;10658893;27;20046;-79
2021/12/06 08:09:10;;;;;;;22.42;3.97;;;;;;;16.01;49.22;95119.38;10663823;27;20064;-80
2021/12/06 08:14:12;;;;;;;17.30;3.20;;;;;;;16.01;48.83;95130.56;10664654;27;20057;-80
2021/12/06 08:19:14;;;;;;;10.93;3.03;;;;;;;16.01;48.71;95133.19;10645669;27;20034;-79
2021/12/06 08:24:16;;;;;;;18.85;3.80;;;;;;;16.01;48.85;95145.41;10662926;27;20042;-80
2021/12/06 08:29:17;;;;;;;9.73;3.20;;;;;;;16.01;48.68;95143.59;10662244;27;20472;-80
2021/12/06 08:34:19;;;;;;;14.07;3.03;;;;;;;16.00;48.86;95144.59;10639483;27;20038;-80
2021/12/06 08:39:21;;;;;;;12.68;3.25;;;;;;;16.01;48.67;95161.03;10643773;27;20043;-80
2021/12/06 08:44:22;;;;;;;12.57;3.00;;;;;;;16.02;48.83;95149.59;10662539;27;20091;-78
2021/12/06 08:49:25;;;;;;;23.05;4.00;;;;;;;16.02;48.58;95153.00;10660411;27;20043;-80
2021/12/06 08:54:29;;;;;;;11.18;3.40;;;;;;;16.02;48.52;95160.81;10663354;27;20037;-80
2021/12/06 08:59:30;;;;;;;5.72;3.20;;;;;;;16.03;48.39;95174.63;10643216;27;20038;-80
2021/12/06 09:04:36;;;;;;;11.40;3.05;;;;;;;16.04;48.64;95178.81;10644057;27;20073;-80
2021/12/06 09:09:49;;;;;;;9.30;3.55;;;;;;;16.06;48.21;95184.63;10643325;27;20092;-80
2021/12/06 09:14:53;;;;;;;9.90;3.47;;;;;;;16.07;48.34;95194.03;10656903;27;20133;-80
2021/12/06 09:19:55;;;;;;;7.00;3.10;;;;;;;16.07;48.79;95194.81;10654947;27;20060;-80
2021/12/06 09:24:57;;;;;;;8.98;3.42;;;;;;;16.08;48.44;95196.41;10637829;27;20372;-80
2021/12/06 09:29:59;;;;;;;7.80;3.70;;;;;;;16.09;48.57;95192.00;10661745;27;20050;-80
2021/12/06 09:35:03;;;;;;;6.43;3.13;;;;;;;16.10;48.18;95188.41;10643141;27;20473;-80
2021/12/06 09:40:06;;;;;;;10.40;3.30;;;;;;;16.11;48.21;95188.19;10657141;27;20030;-80
2021/12/06 09:45:11;;;;;;;5.57;3.60;;;;;;;16.11;48.01;95188.19;10662635;27;20452;-80
2021/12/06 09:50:12;;;;;;;8.70;3.53;;;;;;;16.12;48.11;95188.97;10660379;27;20050;-80
2021/12/06 09:55:14;;;;;;;12.13;3.58;;;;;;;16.22;49.72;95180.66;10640528;27;20043;-83
2021/12/06 10:00:20;;;;;;;8.07;3.67;;;;;;;16.39;49.48;95186.16;10629135;27;20038;-82
2021/12/06 10:05:29;;;;;;;9.45;3.95;;;;;;;16.56;49.21;95191.56;10643425;27;20460;-82
2021/12/06 10:10:31;;;;;;;7.85;3.85;;;;;;;16.75;49.37;95177.56;10623002;27;20074;-83
2021/12/06 10:15:33;;;;;;;4.45;3.53;;;;;;;16.92;49.01;95184.81;10643253;27;20043;-82
2021/12/06 10:20:35;;;;;;;7.72;3.63;;;;;;;17.06;48.57;95175.03;10661689;27;20406;-83
2021/12/06 10:25:42;;;;;;;8.35;3.30;;;;;;;17.19;48.43;95185.31;10656296;27;20046;-82
2021/12/06 10:30:50;;;;;;;8.35;2.90;;;;;;;17.30;48.02;95191.59;10641138;27;20066;-83
2021/12/06 10:35:55;;;;;;;5.18;3.30;;;;;;;17.39;47.63;95180.63;10642556;27;20050;-82
2021/12/06 10:41:12;;;;;;;5.22;2.80;;;;;;;17.48;47.23;95178.50;10661195;27;20512;-83
2021/12/06 10:46:16;;;;;;;2.93;2.47;;;;;;;17.54;47.33;95180.22;10661188;27;20451;-81
2021/12/06 10:51:19;;;;;;;9.48;2.80;;;;;;;17.61;47.50;95185.38;10661387;27;20034;-80
2021/12/06 10:56:25;;;;;;;3.78;2.70;;;;;;;17.66;47.29;95189.91;10637878;27;20095;-82
2021/12/06 11:01:33;;;;;;;3.90;2.60;;;;;;;17.71;46.84;95177.78;10647942;27;20488;-82
2021/12/06 11:06:44;;;;;;;2.72;2.42;;;;;;;17.77;46.64;95189.16;10644086;27;20080;-85
2021/12/06 11:11:50;;;;;;;14.88;3.03;;;;;;;17.80;47.19;95188.72;10657531;27;20039;-91
2021/12/06 11:16:56;;;;;;;14.27;3.10;;;;;;;17.84;47.46;95196.88;10625329;27;20053;-82
2021/12/06 11:22:07;;;;;;;15.33;3.53;;;;;;;17.88;47.64;95193.63;10667917;27;20133;-80
2021/12/06 11:27:10;;;;;;;14.90;4.00;;;;;;;17.90;47.43;95199.41;10666559;27;20049;-81
2021/12/06 11:32:20;;;;;;;11.23;4.22;;;;;;;17.98;51.02;95195.69;10661186;27;20050;-80
2021/12/06 11:37:27;;;;;;;17.60;5.25;;;;;;;18.05;54.78;95190.34;10648787;27;20141;-79
2021/12/06 11:42:28;;;;;;;14.53;4.57;;;;;;;18.10;53.27;95195.69;10668232;27;20042;-81
2021/12/06 11:47:30;;;;;;;6.18;3.72;;;;;;;18.13;53.13;95203.09;10649310;27;20047;-80
2021/12/06 11:52:34;;;;;;;12.05;3.78;;;;;;;18.15;52.81;95198.44;10665844;27;20058;-79
2021/12/06 11:57:41;;;;;;;5.22;3.53;;;;;;;18.18;52.51;95199.78;10666478;27;20464;-80
2021/12/06 12:02:58;;;;;;;9.68;3.63;;;;;;;18.20;52.20;95195.94;10652820;27;20042;-78
2021/12/06 12:08:10;;;;;;;8.98;3.45;;;;;;;18.21;51.66;95192.28;10647953;27;20046;-79
2021/12/06 12:13:23;;;;;;;8.23;3.33;;;;;;;18.21;51.39;95197.53;10665673;27;20042;-79
2021/12/06 12:18:26;;;;;;;6.40;3.03;;;;;;;18.22;51.84;95200.94;10665606;27;20039;-81
2021/12/06 12:23:33;;;;;;;7.70;3.08;;;;;;;18.21;51.08;95202.75;10665135;27;20126;-79
2021/12/06 12:28:49;;;;;;;5.57;3.33;;;;;;;18.21;51.22;95197.53;10643205;27;20043;-79
2021/12/06 12:33:51;;;;;;;7.20;3.20;;;;;;;18.22;50.33;95201.72;10663522;27;20065;-80
2021/12/06 12:38:56;;;;;;;3.95;3.13;;;;;;;18.20;50.74;95202.97;10626600;27;20043;-79
2021/12/06 12:44:04;;;;;;;5.40;3.28;;;;;;;18.21;49.96;95209.78;10661776;27;20047;-79
2021/12/06 12:49:18;;;;;;;3.85;2.92;;;;;;;18.18;49.79;95200.59;10666368;27;20038;-79
2021/12/06 12:54:27;;;;;;;5.93;3.08;;;;;;;18.19;49.92;95206.63;10663632;27;20551;-81
2021/12/06 12:59:50;;;;;;;4.43;2.88;;;;;;;18.16;49.46;95209.69;10665874;27;20037;-79
2021/12/06 13:04:58;;;;;;;6.85;3.05;;;;;;;18.13;49.20;95211.72;10658938;27;20065;-79
2021/12/06 13:10:37;;;;;;;4.47;2.85;;;;;;;18.13;49.12;95214.34;10665648;27;20066;-80
2021/12/06 13:15:58;;;;;;;3.38;2.58;;;;;;;18.10;48.98;95206.13;10664829;27;20034;-79
2021/12/06 13:21:26;;;;;;;2.88;2.50;;;;;;;18.08;48.81;95201.16;10660353;27;20054;-80
2021/12/06 13:26:34;;;;;;;3.53;2.35;;;;;;;18.07;48.83;95210.00;10645767;27;20065;-79
2021/12/06 13:31:36;;;;;;;3.05;2.40;;;;;;;18.04;48.77;95209.66;10663284;27;20051;-79
2021/12/06 13:36:44;;;;;;;3.88;2.70;;;;;;;18.02;48.41;95215.09;10663704;27;20043;-79
2021/12/06 13:41:46;;;;;;;5.43;2.95;;;;;;;18.00;48.74;95211.13;10662601;27;20472;-80
2021/12/06 13:46:52;;;;;;;3.90;2.50;;;;;;;17.96;48.68;95202.97;10636165;27;20395;-79
2021/12/06 13:51:57;;;;;;;3.22;2.80;;;;;;;17.94;48.62;95200.56;10663523;27;20046;-79
2021/12/06 13:57:05;;;;;;;2.90;2.47;;;;;;;17.91;48.31;95200.19;10663311;27;20091;-80
2021/12/06 14:02:20;;;;;;;4.03;2.75;;;;;;;17.90;48.01;95211.69;10658447;27;20095;-79
2021/12/06 14:07:25;;;;;;;4.15;2.42;;;;;;;17.86;48.07;95215.72;10665358;27;20129;-79
2021/12/06 14:12:31;;;;;;;2.58;2.35;;;;;;;17.84;48.06;95220.38;10655741;27;20046;-79
2021/12/06 14:17:33;;;;;;;2.53;1.90;;;;;;;17.81;48.20;95216.38;10643376;27;20400;-79
2021/12/06 14:22:34;;;;;;;5.20;2.85;;;;;;;17.79;48.04;95215.81;10622476;27;20043;-80
2021/12/06 14:27:36;;;;;;;3.40;2.30;;;;;;;17.77;48.00;95217.88;10642740;27;20053;-79
2021/12/06 14:32:46;;;;;;;3.45;2.42;;;;;;;17.75;47.86;95219.88;10660960;27;20540;-80
2021/12/06 14:37:48;;;;;;;3.60;2.50;;;;;;;17.73;47.87;95212.28;10670108;27;20027;-79
2021/12/06 14:42:51;;;;;;;5.25;2.70;;;;;;;17.71;47.48;95201.28;10670615;27;20039;-79
2021/12/06 14:48:02;;;;;;;4.13;2.63;;;;;;;17.69;47.72;95210.31;10651591;27;20045;-79
2021/12/06 14:53:08;;;;;;;3.15;2.80;;;;;;;17.67;47.81;95201.94;10664267;27;20051;-79
2021/12/06 14:58:34;;;;;;;2.78;2.40;;;;;;;17.66;47.64;95216.03;10668776;27;20122;-79
2021/12/06 15:03:43;;;;;;;3.13;2.63;;;;;;;17.62;47.65;95207.03;10660545;27;20054;-79
2021/12/06 15:08:48;;;;;;;3.13;2.78;;;;;;;17.61;47.55;95213.25;10669777;27;20030;-79
2021/12/06 15:13:52;;;;;;;4.88;2.35;;;;;;;17.59;47.51;95218.69;10649019;27;20038;-79
2021/12/06 15:18:55;;;;;;;3.38;2.85;;;;;;;17.57;47.62;95228.56;10665311;27;20037;-79
2021/12/06 15:24:02;;;;;;;3.00;2.70;;;;;;;17.54;47.45;95226.41;10649826;27;20137;-79
2021/12/06 15:29:03;;;;;;;3.35;2.60;;;;;;;17.53;47.68;95238.66;10647529;27;20039;-79
2021/12/06 15:34:07;;;;;;;3.00;2.70;;;;;;;17.51;47.64;95235.44;10638954;27;20530;-79
2021/12/06 15:39:12;;;;;;;4.10;2.80;;;;;;;17.49;47.92;95240.09;10632398;27;20056;-78
2021/12/06 15:44:19;;;;;;;9.18;3.05;;;;;;;17.49;47.97;95237.50;10667437;27;20377;-81
2021/12/06 15:49:22;;;;;;;3.88;2.95;;;;;;;17.48;48.03;95243.75;10629861;27;20072;-76
2021/12/06 15:54:31;;;;;;;7.68;2.90;;;;;;;17.47;48.03;95244.75;10670547;27;20502;-76
2021/12/06 15:59:34;;;;;;;5.28;2.60;;;;;;;17.45;48.04;95246.78;10669551;27;20052;-76
2021/12/06 16:04:38;;;;;;;5.80;2.70;;;;;;;17.44;47.70;95249.63;10669921;27;20049;-76
2021/12/06 16:09:40;;;;;;;12.98;3.13;;;;;;;17.41;48.03;95245.63;10669671;27;20091;-77
2021/12/06 16:14:46;;;;;;;5.53;3.10;;;;;;;17.40;47.93;95244.84;10669495;27;20042;-75
2021/12/06 16:19:48;;;;;;;9.02;3.17;;;;;;;17.38;48.20;95246.06;10669510;27;20493;-76
2021/12/06 16:24:49;;;;;;;5.15;3.20;;;;;;;17.37;48.06;95249.69;10669230;27;20050;-76
2021/12/06 16:29:53;;;;;;;5.68;3.28;;;;;;;17.34;48.15;95248.31;10668758;27;20553;-75
2021/12/06 16:34:55;;;;;;;5.53;3.40;;;;;;;17.34;48.28;95244.91;10668792;27;20043;-76
2021/12/06 16:40:00;;;;;;;4.28;3.00;;;;;;;17.33;48.19;95248.53;10650034;27;20051;-75
2021/12/06 16:45:08;;;;;;;5.18;3.17;;;;;;;17.32;48.25;95252.97;10668275;27;20042;-75
2021/12/06 16:50:13;;;;;;;6.38;3.10;;;;;;;17.32;48.12;95242.53;10668027;27;20426;-75
2021/12/06 16:55:18;;;;;;;8.88;3.65;;;;;;;17.32;48.00;95252.97;10667949;27;20056;-76
2021/12/06 17:00:24;;;;;;;4.32;2.80;;;;;;;17.31;48.24;95245.38;10667112;27;20480;-76
2021/12/06 17:05:49;;;;;;;3.83;3.15;;;;;;;17.31;48.13;95245.38;10667432;27;20405;-76
2021/12/06 17:10:57;;;;;;;4.40;3.30;;;;;;;17.30;48.16;95241.94;10667455;27;20045;-75
2021/12/06 17:16:04;;;;;;;4.78;3.35;;;;;;;17.29;47.97;95235.16;10667163;27;20039;-76
2021/12/06 17:21:15;;;;;;;4.90;3.20;;;;;;;17.28;47.89;95238.75;10667017;27;20091;-76
2021/12/06 17:26:21;;;;;;;4.40;3.30;;;;;;;17.27;48.06;95239.75;10666783;27;20047;-76
2021/12/06 17:31:45;;;;;;;4.85;3.22;;;;;;;17.27;47.86;95238.97;10647575;27;20077;-75
2021/12/06 17:36:50;;;;;;;4.85;3.30;;;;;;;17.23;48.08;95247.25;10647712;27;20465;-75
2021/12/06 17:41:53;;;;;;;3.80;3.28;;;;;;;17.23;47.93;95243.84;10666045;27;20050;-75
2021/12/06 17:46:57;;;;;;;4.55;3.60;;;;;;;17.21;47.79;95238.03;10665859;27;20044;-75
2021/12/06 17:51:58;;;;;;;4.78;3.50;;;;;;;17.21;47.84;95227.59;10664521;27;20434;-75
2021/12/06 17:57:03;;;;;;;5.72;4.05;;;;;;;17.19;48.06;95234.84;10665518;27;20049;-75
2021/12/06 18:02:07;;;;;;;4.43;3.85;;;;;;;17.18;48.03;95236.69;10665443;27;20043;-75
2021/12/06 18:07:12;;;;;;;4.95;3.60;;;;;;;17.18;47.89;95222.81;10664206;27;20035;-75
2021/12/06 18:12:14;;;;;;;8.15;3.58;;;;;;;17.16;48.25;95236.06;10664619;27;20080;-73
2021/12/06 18:17:16;;;;;;;6.90;3.33;;;;;;;17.15;48.36;95221.47;10664703;27;20388;-85
2021/12/06 18:22:19;;;;;;;5.93;3.58;;;;;;;17.17;48.29;95232.47;10665430;27;20517;-85
2021/12/06 18:27:22;;;;;;;8.30;4.00;;;;;;;17.18;48.79;95220.22;10664629;27;20469;-82
2021/12/06 18:32:24;;;;;;;10.88;3.90;;;;;;;17.18;49.05;95218.41;10646083;27;20417;-83
2021/12/06 18:37:29;;;;;;;12.63;3.63;;;;;;;17.20;49.39;95202.56;10664755;27;20092;-79
2021/12/06 18:42:38;;;;;;;13.02;3.67;;;;;;;17.21;49.10;95194.50;10646713;27;20046;-80
2021/12/06 18:47:44;;;;;;;10.82;3.70;;;;;;;17.22;49.13;95184.88;10664782;27;20058;-83
2021/12/06 18:52:47;;;;;;;9.50;3.45;;;;;;;17.21;49.02;95181.47;10664828;27;20042;-80
2021/12/06 18:57:49;;;;;;;9.82;3.78;;;;;;;17.21;49.25;95183.25;10629245;27;20053;-82
2021/12/06 19:02:52;;;;;;;9.48;4.22;;;;;;;17.21;48.92;95176.25;10664909;27;20049;-79
2021/12/06 19:07:54;;;;;;;9.82;4.03;;;;;;;17.20;49.02;95160.81;10646212;27;20059;-80
2021/12/06 19:12:56;;;;;;;10.45;4.50;;;;;;;17.18;49.08;95150.59;10663438;27;20054;-81
2021/12/06 19:17:58;;;;;;;9.15;4.30;;;;;;;17.18;48.79;95153.22;10646300;27;20399;-82
2021/12/06 19:22:59;;;;;;;8.70;4.20;;;;;;;17.16;48.66;95144.81;10670465;27;20043;-80
2021/12/06 19:28:01;;;;;;;14.65;4.90;;;;;;;17.15;48.90;95138.00;10671693;27;20047;-80
2021/12/06 19:33:04;;;;;;;6.78;4.10;;;;;;;17.14;48.77;95140.84;10653546;27;20103;-80
2021/12/06 19:38:07;;;;;;;8.25;4.47;;;;;;;17.13;48.74;95134.84;10653342;27;20034;-81
2021/12/06 19:43:10;;;;;;;8.60;4.50;;;;;;;17.11;48.69;95123.81;10671615;27;20051;-81
2021/12/06 19:48:14;;;;;;;9.32;4.90;;;;;;;17.10;48.65;95124.84;10635554;27;20061;-80
2021/12/06 19:53:18;;;;;;;7.93;4.72;;;;;;;17.09;48.65;95122.47;10671180;27;20476;-80
2021/12/06 19:58:24;;;;;;;7.68;4.45;;;;;;;17.07;48.60;95127.88;10670666;27;20034;-82
2021/12/06 20:03:26;;;;;;;6.95;4.63;;;;;;;17.06;48.75;95128.13;10651528;27;20042;-80
2021/12/06 20:08:28;;;;;;;7.55;4.13;;;;;;;17.04;48.58;95116.09;10651695;27;20043;-81
2021/12/06 20:13:33;;;;;;;8.32;4.70;;;;;;;17.04;48.49;95128.31;10669710;27;20034;-81
2021/12/06 20:18:37;;;;;;;6.88;4.45;;;;;;;17.03;48.60;95129.34;10670128;27;20046;-81
2021/12/06 20:23:41;;;;;;;5.53;4.20;;;;;;;17.00;48.57;95120.13;10669488;27;20059;-81
2021/12/06 20:28:42;;;;;;;6.22;4.25;;;;;;;16.99;48.36;95125.56;10668458;27;20061;-81
2021/12/06 20:33:47;;;;;;;5.78;4.35;;;;;;;16.98;48.53;95127.38;10668279;27;20043;-82
2021/12/06 20:38:50;;;;;;;6.85;4.22;;;;;;;16.96;48.56;95119.00;10669323;27;20495;-80
2021/12/06 20:43:52;;;;;;;5.30;3.97;;;;;;;16.96;48.19;95113.00;10668549;27;20046;-82
2021/12/06 20:48:56;;;;;;;5.70;4.50;;;;;;;16.96;48.47;95105.19;10649832;27;20046;-82
2021/12/06 20:53:59;;;;;;;5.05;3.95;;;;;;;16.94;48.17;95094.16;10668483;27;20042;-81
2021/12/06 20:59:04;;;;;;;8.00;4.20;;;;;;;16.93;48.19;95108.22;10668287;27;20043;-81
2021/12/06 21:04:07;;;;;;;8.43;4.30;;;;;;;16.91;47.98;95097.19;10667406;27;20046;-80
2021/12/06 21:09:19;;;;;;;5.40;4.25;;;;;;;16.89;48.18;95097.41;10667860;27;20035;-82
2021/12/06 21:14:40;;;;;;;4.75;4.18;;;;;;;16.88;47.88;95106.28;10649113;27;20091;-81
2021/12/06 21:19:42;;;;;;;5.65;3.80;;;;;;;16.88;47.93;95097.63;10648903;27;20072;-80
2021/12/06 21:24:44;;;;;;;5.03;3.80;;;;;;;16.85;48.06;95098.84;10667297;27;20046;-80
2021/12/06 21:29:47;;;;;;;4.28;3.40;;;;;;;16.84;48.04;95102.47;10648427;27;20046;-80
2021/12/06 21:34:49;;;;;;;5.50;4.07;;;;;;;16.82;47.86;95102.69;10647941;27;20051;-81
2021/12/06 21:39:50;;;;;;;4.50;3.72;;;;;;;16.80;48.00;95099.50;10666801;27;20045;-79
2021/12/06 21:44:52;;;;;;;4.93;3.90;;;;;;;16.79;48.02;95097.13;10666479;27;20077;-83
2021/12/06 21:49:54;;;;;;;4.28;3.58;;;;;;;16.77;48.14;95094.75;10666369;27;20043;-80
2021/12/06 21:54:56;;;;;;;4.72;3.95;;;;;;;16.75;47.82;95094.16;10666186;27;20488;-82
2021/12/06 21:59:57;;;;;;;7.38;4.00;;;;;;;16.74;47.91;95086.56;10647610;27;20047;-81
2021/12/06 22:04:59;;;;;;;3.92;3.45;;;;;;;16.73;48.11;95090.19;10637605;27;20047;-82
2021/12/06 22:10:21;;;;;;;4.50;3.72;;;;;;;16.71;47.79;95087.78;10665987;27;20046;-80
2021/12/06 22:15:23;;;;;;;5.43;4.00;;;;;;;16.69;48.10;95090.63;10665784;27;20404;-82
2021/12/06 22:20:26;;;;;;;5.82;4.40;;;;;;;16.67;48.17;95086.63;10646991;27;20039;-81
2021/12/06 22:25:29;;;;;;;3.88;3.45;;;;;;;16.65;48.16;95084.25;10665023;27;20050;-80
2021/12/06 22:30:30;;;;;;;4.50;3.78;;;;;;;16.63;48.04;95088.88;10664899;27;20053;-81
2021/12/06 22:35:32;;;;;;;4.43;3.40;;;;;;;16.62;48.12;95086.50;10647068;27;20045;-82
2021/12/06 22:40:35;;;;;;;5.28;3.65;;;;;;;16.60;47.93;95083.31;10665026;27;20051;-81
2021/12/06 22:45:43;;;;;;;4.90;3.63;;;;;;;16.58;47.77;95062.69;10664219;27;20142;-81
2021/12/06 22:50:45;;;;;;;;;;;;;;;16.56;47.72;95056.09;10665056;27;20042;-80
2021/12/06 22:55:47;;;;;;;5.35;3.95;;;;;;;16.54;47.77;95045.91;10667123;27;20313;-81
2021/12/06 23:01:06;;;;;;;4.75;3.90;;;;;;;16.52;47.73;95034.91;10672385;27;20034;-80
2021/12/06 23:06:09;;;;;;;5.53;4.53;;;;;;;16.50;47.89;95018.72;10672667;27;20039;-81
2021/12/06 23:11:11;;;;;;;5.70;4.03;;;;;;;16.47;47.77;95008.72;10670196;27;20058;-81
2021/12/06 23:16:14;;;;;;;5.65;4.63;;;;;;;16.46;48.02;94986.28;10671032;27;20031;-81
2021/12/06 23:21:22;;;;;;;6.45;4.28;;;;;;;16.43;47.94;94971.91;10651136;27;20532;-80
2021/12/06 23:26:24;;;;;;;4.47;3.65;;;;;;;16.41;48.35;94979.13;10652961;27;20480;-81
2021/12/06 23:31:27;;;;;;;5.00;4.00;;;;;;;16.40;48.08;94984.56;10671045;27;20085;-83
2021/12/06 23:36:33;;;;;;;5.88;4.53;;;;;;;16.38;47.94;95000.41;10671401;27;20042;-81
2021/12/06 23:46:56;;;;;;;5.30;4.25;;;;;;;16.33;48.17;95001.06;10628807;27;20050;-81
2021/12/06 23:51:58;;;;;;;5.72;4.60;;;;;;;16.31;48.20;94997.88;10670875;27;20038;-81
2021/12/06 23:57:00;;;;;;;7.80;4.63;;;;;;;16.30;47.94;94992.91;10670480;27;20046;-81
